createdAt,value
2023-04-29T00:00:55.997Z,31.52
2023-04-29T00:03:29.319Z,32.03
2023-04-29T00:05:57.707Z,33.22
2023-04-29T00:08:25.800Z,33.95
2023-04-29T00:10:53.591Z,32.83
2023-04-29T00:13:21.508Z,33.15
2023-04-29T00:15:49.454Z,32.87
2023-04-29T00:18:17.107Z,33.65
2023-04-29T00:20:48.334Z,33.38
2023-04-29T00:23:16.318Z,35.20
2023-04-29T00:25:46.112Z,35.03
2023-04-29T00:28:13.941Z,36.00
2023-04-29T00:30:41.703Z,35.55
2023-04-29T00:33:09.531Z,35.67
2023-04-29T00:35:37.328Z,36.33
2023-04-29T00:38:06.985Z,36.75
2023-04-29T00:40:36.725Z,37.27
2023-04-29T00:43:04.681Z,37.53
2023-04-29T00:45:32.486Z,37.78
2023-04-29T00:48:00.285Z,36.50
2023-04-29T00:50:28.462Z,36.97
2023-04-29T00:52:56.652Z,36.05
2023-04-29T00:55:27.444Z,35.92
2023-04-29T00:57:55.351Z,36.95
2023-04-29T01:00:26.251Z,35.70
2023-04-29T01:02:57.340Z,35.53
2023-04-29T01:05:25.446Z,36.63
2023-04-29T01:08:00.765Z,35.13
2023-04-29T01:10:31.522Z,35.30
2023-04-29T01:13:05.660Z,34.67
2023-04-29T01:15:39.150Z,33.63
2023-04-29T01:18:12.119Z,33.80
2023-04-29T01:20:40.195Z,33.70
2023-04-29T01:23:08.129Z,33.25
2023-04-29T01:25:38.301Z,32.22
2023-04-29T01:28:11.742Z,32.20
2023-04-29T01:30:46.006Z,32.05
2023-04-29T01:33:18.747Z,32.13
2023-04-29T01:35:57.723Z,31.42
2023-04-29T01:38:32.186Z,29.85
2023-04-29T01:41:11.779Z,29.48
2023-04-29T01:43:40.263Z,28.97
2023-04-29T01:46:11.179Z,29.67
2023-04-29T01:48:40.909Z,28.92
2023-04-29T01:51:11.831Z,28.50
2023-04-29T01:53:41.612Z,27.45
2023-04-29T01:56:10.878Z,27.27
2023-04-29T01:58:39.062Z,27.05
2023-04-29T02:01:07.531Z,27.02
2023-04-29T02:03:37.258Z,26.17
2023-04-29T02:06:07.323Z,26.98
2023-04-29T02:08:35.227Z,26.27
2023-04-29T02:11:04.987Z,26.10
2023-04-29T02:13:34.672Z,26.33
2023-04-29T02:16:09.393Z,26.03
2023-04-29T02:18:37.509Z,27.50
2023-04-29T02:21:05.808Z,25.73
2023-04-29T02:23:33.857Z,26.00
2023-04-29T02:26:01.937Z,26.17
2023-04-29T02:28:29.622Z,24.90
2023-04-29T02:30:58.779Z,25.83
2023-04-29T02:33:26.565Z,26.13
2023-04-29T02:35:54.267Z,25.60
2023-04-29T02:38:22.174Z,26.02
2023-04-29T02:40:50.447Z,25.55
2023-04-29T02:43:18.120Z,25.52
2023-04-29T02:45:46.526Z,24.98
2023-04-29T02:48:16.074Z,25.92
2023-04-29T02:50:45.618Z,23.95
2023-04-29T02:53:13.767Z,23.88
2023-04-29T02:55:41.768Z,24.65
2023-04-29T02:58:09.939Z,23.00
2023-04-29T03:00:38.045Z,23.42
2023-04-29T03:03:05.930Z,23.30
2023-04-29T03:05:37.388Z,22.58
2023-04-29T03:08:07.711Z,22.38
2023-04-29T03:10:35.704Z,22.20
2023-04-29T03:13:05.641Z,22.30
2023-04-29T03:15:33.599Z,22.38
2023-04-29T03:18:01.989Z,22.50
2023-04-29T03:20:29.867Z,21.83
2023-04-29T03:23:02.775Z,21.80
2023-04-29T03:25:32.460Z,21.35
2023-04-29T03:28:00.590Z,21.42
2023-04-29T03:30:28.526Z,20.65
2023-04-29T03:32:56.315Z,21.92
2023-04-29T03:35:24.028Z,21.55
2023-04-29T03:37:51.765Z,22.10
2023-04-29T03:40:22.807Z,22.20
2023-04-29T03:42:50.770Z,22.08
2023-04-29T03:45:18.792Z,21.35
2023-04-29T03:47:48.531Z,22.70
2023-04-29T03:50:18.432Z,23.63
2023-04-29T03:52:47.895Z,22.55
2023-04-29T03:55:15.869Z,23.25
2023-04-29T03:57:45.050Z,24.38
2023-04-29T04:00:13.999Z,23.67
2023-04-29T04:02:42.317Z,24.60
2023-04-29T04:05:10.933Z,23.90
2023-04-29T04:07:38.715Z,23.30
2023-04-29T04:10:09.656Z,24.10
2023-04-29T04:12:37.427Z,24.98
2023-04-29T04:15:07.520Z,24.55
2023-04-29T04:17:35.586Z,25.40
2023-04-29T04:20:03.680Z,24.13
2023-04-29T04:22:33.198Z,24.60
2023-04-29T04:25:01.276Z,24.88
2023-04-29T04:27:29.201Z,24.83
2023-04-29T04:29:57.139Z,24.70
2023-04-29T04:32:26.863Z,25.30
2023-04-29T04:34:54.944Z,24.38
2023-04-29T04:37:22.721Z,24.35
2023-04-29T04:39:50.507Z,24.10
2023-04-29T04:42:18.412Z,23.97
2023-04-29T04:44:46.446Z,24.73
2023-04-29T04:47:14.169Z,24.05
2023-04-29T04:49:44.172Z,25.23
2023-04-29T04:52:14.017Z,24.83
2023-04-29T04:54:41.952Z,24.70
2023-04-29T04:57:11.752Z,25.00
2023-04-29T04:59:39.592Z,24.25
2023-04-29T05:02:08.845Z,25.25
2023-04-29T05:04:36.723Z,24.27
2023-04-29T05:07:05.930Z,25.55
2023-04-29T05:09:33.994Z,24.35
2023-04-29T05:12:02.016Z,23.95
2023-04-29T05:14:29.751Z,23.80
2023-04-29T05:17:00.113Z,24.13
2023-04-29T05:19:27.883Z,22.73
2023-04-29T05:21:55.917Z,22.90
2023-04-29T05:24:27.009Z,23.48
2023-04-29T05:26:57.522Z,22.27
2023-04-29T05:29:27.158Z,23.80
2023-04-29T05:31:54.924Z,22.30
2023-04-29T05:34:22.833Z,22.92
2023-04-29T05:36:50.664Z,21.42
2023-04-29T05:39:18.946Z,23.08
2023-04-29T05:41:48.113Z,21.58
2023-04-29T05:44:15.942Z,23.42
2023-04-29T05:46:43.918Z,22.63
2023-04-29T05:49:11.607Z,22.20
2023-04-29T05:51:41.299Z,21.27
2023-04-29T05:54:09.205Z,21.80
2023-04-29T05:56:37.176Z,21.58
2023-04-29T05:59:06.297Z,20.65
2023-04-29T06:01:34.113Z,21.33
2023-04-29T06:04:02.094Z,21.35
2023-04-29T06:06:30.240Z,21.92
2023-04-29T06:08:57.985Z,20.90
2023-04-29T06:11:26.023Z,21.47
2023-04-29T06:13:53.739Z,20.80
2023-04-29T06:16:23.085Z,20.00
2023-04-29T06:18:51.005Z,20.40
2023-04-29T06:21:18.756Z,21.25
2023-04-29T06:23:46.467Z,20.60
2023-04-29T06:26:14.547Z,20.55
2023-04-29T06:28:42.239Z,21.48
2023-04-29T06:31:10.002Z,20.98
2023-04-29T06:33:39.295Z,21.37
2023-04-29T06:36:07.449Z,21.33
2023-04-29T06:38:35.562Z,20.17
2023-04-29T06:41:04.351Z,20.60
2023-04-29T06:43:32.390Z,20.25
2023-04-29T06:46:00.364Z,20.30
2023-04-29T06:48:30.358Z,20.15
2023-04-29T06:51:00.017Z,19.23
2023-04-29T06:53:28.262Z,19.17
2023-04-29T06:55:56.037Z,19.77
2023-04-29T06:58:23.986Z,19.35
2023-04-29T07:00:52.534Z,18.92
2023-04-29T07:03:20.470Z,18.65
2023-04-29T07:05:48.479Z,18.87
2023-04-29T07:08:17.588Z,18.48
2023-04-29T07:10:45.279Z,18.02
2023-04-29T07:13:12.971Z,18.30
2023-04-29T07:15:40.734Z,18.50
2023-04-29T07:18:08.516Z,17.92
2023-04-29T07:20:37.859Z,18.02
2023-04-29T07:23:05.539Z,17.55
2023-04-29T07:25:34.534Z,17.37
2023-04-29T07:28:02.256Z,17.25
2023-04-29T07:30:30.019Z,18.23
2023-04-29T07:32:57.956Z,17.70
2023-04-29T07:35:25.617Z,16.47
2023-04-29T07:37:53.343Z,16.83
2023-04-29T07:40:21.209Z,16.70
2023-04-29T07:42:50.302Z,16.70
2023-04-29T07:45:17.943Z,16.77
2023-04-29T07:47:45.791Z,15.52
2023-04-29T07:50:13.865Z,15.60
2023-04-29T07:52:41.583Z,15.82
2023-04-29T07:55:10.103Z,16.27
2023-04-29T07:57:38.272Z,15.43
2023-04-29T08:00:08.886Z,14.73
2023-04-29T08:02:36.756Z,15.65
2023-04-29T08:05:05.587Z,15.05
2023-04-29T08:07:33.576Z,15.27
2023-04-29T08:10:01.405Z,14.48
2023-04-29T08:12:29.065Z,13.98
2023-04-29T08:14:56.829Z,14.50
2023-04-29T08:17:25.918Z,15.13
2023-04-29T08:19:53.682Z,13.95
2023-04-29T08:22:21.368Z,14.18
2023-04-29T08:24:49.504Z,14.07
2023-04-29T08:27:17.161Z,14.02
2023-04-29T08:29:44.851Z,14.07
2023-04-29T08:32:12.869Z,13.70
2023-04-29T08:34:42.017Z,13.77
2023-04-29T08:37:09.767Z,13.52
2023-04-29T08:39:37.556Z,13.65
2023-04-29T08:42:09.655Z,12.90
2023-04-29T08:44:37.809Z,13.27
2023-04-29T08:47:06.249Z,12.68
2023-04-29T08:49:34.330Z,12.73
2023-04-29T08:52:03.582Z,13.43
2023-04-29T08:54:32.882Z,12.95
2023-04-29T08:57:02.715Z,12.90
2023-04-29T08:59:30.636Z,13.15
2023-04-29T09:01:58.739Z,12.63
2023-04-29T09:04:32.659Z,13.13
2023-04-29T09:07:00.567Z,13.38
2023-04-29T09:09:30.266Z,12.40
2023-04-29T09:11:57.953Z,12.88
2023-04-29T09:14:26.378Z,12.75
2023-04-29T09:16:54.254Z,13.00
2023-04-29T09:19:32.892Z,13.32
2023-04-29T09:22:00.916Z,12.88
2023-04-29T09:24:33.398Z,13.40
2023-04-29T09:27:03.520Z,14.43
2023-04-29T09:29:32.981Z,13.52
2023-04-29T09:32:01.162Z,13.55
2023-04-29T09:34:33.711Z,12.90
2023-04-29T09:37:03.559Z,11.95
2023-04-29T09:39:40.171Z,12.05
2023-04-29T09:42:09.716Z,11.98
2023-04-29T09:44:39.480Z,11.80
2023-04-29T09:47:10.775Z,11.80
2023-04-29T09:49:41.959Z,10.85
2023-04-29T09:52:11.972Z,10.80
2023-04-29T09:54:44.896Z,10.07
2023-04-29T09:57:15.971Z,9.75
2023-04-29T09:59:45.935Z,10.95
2023-04-29T10:02:16.381Z,9.90
2023-04-29T10:04:48.916Z,9.15
2023-04-29T10:07:19.159Z,10.38
2023-04-29T10:09:52.291Z,9.90
2023-04-29T10:12:21.796Z,9.20
2023-04-29T10:14:56.625Z,9.67
2023-04-29T10:17:28.204Z,9.40
2023-04-29T10:20:03.845Z,9.43
2023-04-29T10:22:38.242Z,9.55
2023-04-29T10:25:09.292Z,9.43
2023-04-29T10:27:40.060Z,8.90
2023-04-29T10:30:11.320Z,9.02
2023-04-29T10:32:50.486Z,8.00
2023-04-29T10:35:20.440Z,6.43
2023-04-29T10:37:49.169Z,6.60
2023-04-29T10:40:21.287Z,6.55
2023-04-29T10:42:50.374Z,6.95
2023-04-29T10:46:26.808Z,6.60
2023-04-29T10:48:59.590Z,7.60
2023-04-29T10:51:32.736Z,7.40
2023-04-29T10:54:04.913Z,7.53
2023-04-29T10:56:40.322Z,7.78
2023-04-29T10:59:12.069Z,7.72
2023-04-29T11:01:46.364Z,7.13
2023-04-29T11:04:14.665Z,7.50
2023-04-29T11:06:47.448Z,6.40
2023-04-29T11:09:18.108Z,6.50
2023-04-29T11:11:48.902Z,5.90
2023-04-29T11:14:17.553Z,5.57
2023-04-29T11:16:50.505Z,6.18
2023-04-29T11:19:18.546Z,6.22
2023-04-29T11:21:47.996Z,5.70
2023-04-29T11:24:17.487Z,5.82
2023-04-29T11:26:46.462Z,6.57
2023-04-29T11:29:14.312Z,6.03
2023-04-29T11:31:42.057Z,6.20
2023-04-29T11:34:11.686Z,5.30
2023-04-29T11:36:39.462Z,4.90
2023-04-29T11:39:08.986Z,5.28
2023-04-29T11:41:37.697Z,5.07
2023-04-29T11:44:07.537Z,4.95
2023-04-29T11:46:35.427Z,5.68
2023-04-29T11:49:03.206Z,4.80
2023-04-29T11:51:32.694Z,5.13
2023-04-29T11:54:00.446Z,5.35
2023-04-29T11:56:28.160Z,4.53
2023-04-29T11:58:56.996Z,4.85
2023-04-29T12:01:24.868Z,5.18
2023-04-29T12:03:53.016Z,5.43
2023-04-29T12:06:20.831Z,4.57
2023-04-29T12:08:50.019Z,4.40
2023-04-29T12:11:20.125Z,4.00
2023-04-29T12:13:47.831Z,3.55
2023-04-29T12:16:15.705Z,2.70
2023-04-29T12:18:43.427Z,3.60
2023-04-29T12:21:11.209Z,3.38
2023-04-29T12:23:39.253Z,4.00
2023-04-29T12:26:09.189Z,4.57
2023-04-29T12:28:37.212Z,4.43
2023-04-29T12:31:07.446Z,4.50
2023-04-29T12:33:35.833Z,4.00
2023-04-29T12:36:05.446Z,3.83
2023-04-29T12:38:33.566Z,4.22
2023-04-29T12:41:01.985Z,3.45
2023-04-29T12:43:32.316Z,3.28
2023-04-29T12:46:02.620Z,3.33
2023-04-29T12:48:33.189Z,3.10
2023-04-29T12:51:02.207Z,3.07
2023-04-29T12:53:30.901Z,2.33
2023-04-29T12:55:59.036Z,2.78
2023-04-29T12:58:31.216Z,2.35
2023-04-29T13:00:59.295Z,3.20
2023-04-29T13:03:27.327Z,3.63
2023-04-29T13:05:55.390Z,3.55
2023-04-29T13:08:23.252Z,3.93
2023-04-29T13:13:25.208Z,2.75
2023-04-29T13:15:53.047Z,2.50
2023-04-29T13:18:20.824Z,2.40
2023-04-29T13:20:48.520Z,2.88
2023-04-29T13:23:16.509Z,2.88
2023-04-29T13:25:44.211Z,3.00
2023-04-29T13:28:12.654Z,3.10
2023-04-29T13:30:41.837Z,2.60
2023-04-29T13:33:12.401Z,2.05
2023-04-29T13:35:41.792Z,2.42
2023-04-29T13:38:10.124Z,2.67
2023-04-29T13:40:45.341Z,2.97
2023-04-29T13:43:21.024Z,3.45
2023-04-29T13:46:00.575Z,2.65
2023-04-29T13:49:02.872Z,2.60
2023-04-29T13:51:56.245Z,2.25
2023-04-29T14:02:21.424Z,3.40
2023-04-29T14:04:26.019Z,2.72
2023-04-29T14:06:54.474Z,2.70
2023-04-29T14:09:23.977Z,2.33
2023-04-29T14:11:54.064Z,2.22
2023-04-29T14:14:21.781Z,2.50
2023-04-29T14:16:50.816Z,2.43
2023-04-29T14:19:18.810Z,2.60
2023-04-29T14:21:48.682Z,2.95
2023-04-29T14:24:16.682Z,2.50
2023-04-29T14:26:44.726Z,2.50
2023-04-29T14:29:13.066Z,2.30
2023-04-29T14:31:41.732Z,2.00
2023-04-29T14:34:10.812Z,1.52
2023-04-29T14:36:38.785Z,1.70
2023-04-29T14:39:06.473Z,1.60
2023-04-29T14:41:34.116Z,1.40
2023-04-29T14:44:01.849Z,1.30
2023-04-29T14:46:30.199Z,1.50
2023-04-29T14:48:58.000Z,1.73
2023-04-29T14:51:29.613Z,1.38
2023-04-29T14:53:57.470Z,1.80
2023-04-29T14:56:25.186Z,1.77
2023-04-29T14:58:54.980Z,1.90
2023-04-29T15:01:22.792Z,2.22
2023-04-29T15:03:52.452Z,1.75
2023-04-29T15:06:20.716Z,1.80
2023-04-29T15:08:49.805Z,1.85
2023-04-29T15:11:17.518Z,1.83
2023-04-29T15:13:45.391Z,2.22
2023-04-29T15:16:13.800Z,1.83
2023-04-29T15:18:45.753Z,1.77
2023-04-29T15:21:13.692Z,1.40
2023-04-29T15:23:41.407Z,1.73
2023-04-29T15:26:10.527Z,1.30
2023-04-29T15:28:38.265Z,1.80
2023-04-29T15:31:06.371Z,1.67
2023-04-29T15:33:34.401Z,1.60
2023-04-29T15:36:02.901Z,1.50
2023-04-29T15:38:30.773Z,1.58
2023-04-29T15:41:00.943Z,1.88
2023-04-29T15:43:30.188Z,1.60
2023-04-29T15:45:58.039Z,1.33
2023-04-29T15:48:26.096Z,1.25
2023-04-29T15:50:54.679Z,1.60
2023-04-29T15:53:23.181Z,1.60
2023-04-29T15:55:51.184Z,1.80
2023-04-29T15:58:18.972Z,1.75
2023-04-29T16:00:48.160Z,2.10
2023-04-29T16:03:15.984Z,1.65
2023-04-29T16:05:44.078Z,1.60
2023-04-29T16:08:11.845Z,1.67
2023-04-29T16:10:39.495Z,1.88
2023-04-29T16:13:07.316Z,1.63
2023-04-29T16:15:35.481Z,2.17
2023-04-29T16:18:04.742Z,1.90
2023-04-29T16:20:33.431Z,1.83
2023-04-29T16:23:01.140Z,1.83
2023-04-29T16:25:28.833Z,1.70
2023-04-29T16:27:56.529Z,1.33
2023-04-29T16:30:24.331Z,1.50
2023-04-29T16:32:52.163Z,1.20
2023-04-29T16:35:25.183Z,1.55
2023-04-29T16:37:53.782Z,1.50
2023-04-29T16:40:21.411Z,1.77
2023-04-29T16:42:49.140Z,1.48
2023-04-29T16:45:17.084Z,1.13
2023-04-29T16:47:45.285Z,1.53
2023-04-29T16:50:13.222Z,1.53
2023-04-29T16:52:42.603Z,1.60
2023-04-29T16:55:12.005Z,1.42
2023-04-29T16:57:39.692Z,1.60
2023-04-29T17:00:11.763Z,1.50
2023-04-29T17:02:42.859Z,1.13
2023-04-29T17:05:11.129Z,1.30
2023-04-29T17:07:39.216Z,1.20
2023-04-29T17:10:09.657Z,1.10
2023-04-29T17:12:38.491Z,0.90
2023-04-29T17:15:07.108Z,0.65
2023-04-29T17:17:35.041Z,1.27
2023-04-29T17:20:03.766Z,0.80
2023-04-29T17:22:32.743Z,0.60
2023-04-29T17:25:00.617Z,0.82
2023-04-29T17:27:29.661Z,0.50
2023-04-29T17:29:57.583Z,0.70
2023-04-29T17:32:28.741Z,0.50
2023-04-29T17:34:56.990Z,0.63
2023-04-29T17:37:25.924Z,0.50
2023-04-29T17:39:53.951Z,0.50
2023-04-29T17:42:22.050Z,0.40
2023-04-29T17:44:51.377Z,0.50
2023-04-29T17:47:19.259Z,0.50
2023-04-29T17:49:47.088Z,0.40
2023-04-29T17:52:15.817Z,0.90
2023-04-29T17:54:43.611Z,0.70
2023-04-29T17:57:11.234Z,0.90
2023-04-29T17:59:38.920Z,1.35
2023-04-29T18:02:08.180Z,1.60
2023-04-29T18:04:37.312Z,1.40
2023-04-29T18:07:05.226Z,1.40
2023-04-29T18:09:32.981Z,1.60
2023-04-29T18:12:02.341Z,1.70
2023-04-29T18:14:31.031Z,1.88
2023-04-29T18:16:59.381Z,2.15
2023-04-29T18:19:28.665Z,1.70
2023-04-29T18:21:58.364Z,1.70
2023-04-29T18:24:26.626Z,2.00
2023-04-29T18:26:54.295Z,2.35
2023-04-29T18:29:21.923Z,2.88
2023-04-29T18:31:49.656Z,3.10
2023-04-29T18:34:17.485Z,3.08
2023-04-29T18:36:46.530Z,3.25
2023-04-29T18:39:14.186Z,3.75
2023-04-29T18:41:41.841Z,3.58
2023-04-29T18:44:09.563Z,3.93
2023-04-29T18:46:37.225Z,3.70
2023-04-29T18:49:04.908Z,4.17
2023-04-29T18:51:32.685Z,4.47
2023-04-29T18:54:01.691Z,4.53
2023-04-29T18:56:29.301Z,4.00
2023-04-29T18:58:56.943Z,4.57
2023-04-29T19:01:24.677Z,4.50
2023-04-29T19:03:52.615Z,4.30
2023-04-29T19:06:20.338Z,4.40
2023-04-29T19:08:48.033Z,5.20
2023-04-29T19:11:17.064Z,5.15
2023-04-29T19:13:44.747Z,5.20
2023-04-29T19:16:12.511Z,4.72
2023-04-29T19:18:40.320Z,5.15
2023-04-29T19:21:08.172Z,4.78
2023-04-29T19:23:36.156Z,5.03
2023-04-29T19:26:03.841Z,5.13
2023-04-29T19:28:32.879Z,4.75
2023-04-29T19:31:00.552Z,4.35
2023-04-29T19:33:28.339Z,4.38
2023-04-29T19:35:56.103Z,4.50
2023-04-29T19:38:24.327Z,4.03
2023-04-29T19:40:52.054Z,4.47
2023-04-29T19:43:19.748Z,3.90
2023-04-29T19:45:48.847Z,3.93
2023-04-29T19:48:16.583Z,4.28
2023-04-29T19:50:44.284Z,4.03
2023-04-29T19:53:12.449Z,5.80
2023-04-29T19:55:40.530Z,7.23
2023-04-29T19:58:08.492Z,8.40
2023-04-29T20:00:36.461Z,7.85
2023-04-29T20:03:05.900Z,7.03
2023-04-29T20:05:34.022Z,4.88
2023-04-29T20:08:01.808Z,5.25
2023-04-29T20:10:30.193Z,4.20
2023-04-29T20:13:00.422Z,4.22
2023-04-29T20:15:28.474Z,4.07
2023-04-29T20:17:56.228Z,3.58
2023-04-29T20:20:26.064Z,3.90
2023-04-29T20:22:57.991Z,4.10
2023-04-29T20:25:25.726Z,4.03
2023-04-29T20:27:54.262Z,3.80
2023-04-29T20:30:22.225Z,3.80
2023-04-29T20:32:50.602Z,4.10
2023-04-29T20:35:18.594Z,4.18
2023-04-29T20:37:47.715Z,4.33
2023-04-29T20:40:15.502Z,4.33
2023-04-29T20:42:43.154Z,4.20
2023-04-29T20:45:12.020Z,4.18
2023-04-29T20:47:39.811Z,4.40
2023-04-29T20:50:08.428Z,4.53
2023-04-29T20:52:36.631Z,4.38
2023-04-29T20:55:06.141Z,4.55
2023-04-29T20:57:33.864Z,4.40
2023-04-29T21:00:01.647Z,4.40
2023-04-29T21:02:29.432Z,4.75
2023-04-29T21:04:57.160Z,4.47
2023-04-29T21:07:24.889Z,4.28
2023-04-29T21:09:52.765Z,4.50
2023-04-29T21:12:22.391Z,4.33
2023-04-29T21:14:50.040Z,4.13
2023-04-29T21:17:17.768Z,4.65
2023-04-29T21:19:45.434Z,4.22
2023-04-29T21:22:13.126Z,4.43
2023-04-29T21:24:40.869Z,4.32
2023-04-29T21:27:08.576Z,4.37
2023-04-29T21:29:40.762Z,4.20
2023-04-29T21:32:08.712Z,4.38
2023-04-29T21:34:36.790Z,4.43
2023-04-29T21:37:04.822Z,4.65
2023-04-29T21:39:32.881Z,4.38
2023-04-29T21:42:03.013Z,4.67
2023-04-29T21:44:30.711Z,4.17
2023-04-29T21:47:00.879Z,4.65
2023-04-29T21:49:28.997Z,4.75
2023-04-29T21:51:56.920Z,4.75
2023-04-29T21:54:24.542Z,4.15
2023-04-29T21:56:52.173Z,4.68
2023-04-29T21:59:19.929Z,4.72
2023-04-29T22:01:59.698Z,5.05
2023-04-29T22:04:29.156Z,4.85
2023-04-29T22:06:57.160Z,5.13
2023-04-29T22:09:24.926Z,5.55
2023-04-29T22:11:52.695Z,6.50
2023-04-29T22:14:20.389Z,7.75
2023-04-29T22:16:48.181Z,7.65
2023-04-29T22:19:16.008Z,6.80
2023-04-29T22:21:45.065Z,5.95
2023-04-29T22:24:12.776Z,6.50
2023-04-29T22:26:40.545Z,6.00
2023-04-29T22:29:08.202Z,6.20
2023-04-29T22:31:35.991Z,6.40
2023-04-29T22:34:03.735Z,6.10
2023-04-29T22:36:32.066Z,6.47
2023-04-29T22:39:01.235Z,6.57
2023-04-29T22:41:29.393Z,6.40
2023-04-29T22:43:57.800Z,6.50
2023-04-29T22:46:25.741Z,6.07
2023-04-29T22:48:53.541Z,6.10
2023-04-29T22:51:21.333Z,5.95
2023-04-29T22:53:48.971Z,6.30
2023-04-29T22:56:18.169Z,6.75
2023-04-29T22:58:45.868Z,6.30
2023-04-29T23:01:13.634Z,6.73
2023-04-29T23:03:41.377Z,7.65
2023-04-29T23:06:09.141Z,10.52
2023-04-29T23:08:36.889Z,9.60
2023-04-29T23:11:04.832Z,9.43
2023-04-29T23:13:34.018Z,9.15
2023-04-29T23:16:02.004Z,8.98
2023-04-29T23:18:29.843Z,8.32
2023-04-29T23:20:57.801Z,7.47
2023-04-29T23:23:25.563Z,7.30
2023-04-29T23:25:53.267Z,6.95
2023-04-29T23:28:21.009Z,6.47
2023-04-29T23:30:49.971Z,6.90
2023-04-29T23:33:17.632Z,6.72
2023-04-29T23:35:50.424Z,6.95
2023-04-29T23:38:18.356Z,6.43
2023-04-29T23:40:46.317Z,6.88
2023-04-29T23:43:14.880Z,6.20
2023-04-29T23:45:45.038Z,6.68
2023-04-29T23:48:15.616Z,6.40
2023-04-29T23:50:43.372Z,6.17
2023-04-29T23:53:11.107Z,6.63
2023-04-29T23:55:38.801Z,6.10
2023-04-29T23:58:06.456Z,6.28
